sensor_id;sensor_type;location;lat;lon;timestamp;P1;durP1;ratioP1;P2;durP2;ratioP2
57846;SDS011;43675;50.030;21.952;2023-12-14T00:02:19;313.90;;;98.50;;
57846;SDS011;43675;50.030;21.952;2023-12-14T00:04:56;373.10;;;107.40;;
57846;SDS011;43675;50.030;21.952;2023-12-14T00:07:23;384.30;;;106.10;;
57846;SDS011;43675;50.030;21.952;2023-12-14T00:09:50;414.20;;;109.30;;
57846;SDS011;43675;50.030;21.952;2023-12-14T00:12:17;370.70;;;108.50;;
57846;SDS011;43675;50.030;21.952;2023-12-14T00:14:49;406.60;;;105.80;;
57846;SDS011;43675;50.030;21.952;2023-12-14T00:17:16;358.70;;;103.90;;
57846;SDS011;43675;50.030;21.952;2023-12-14T00:19:43;326.00;;;102.60;;
57846;SDS011;43675;50.030;21.952;2023-12-14T00:22:10;524.80;;;116.10;;
57846;SDS011;43675;50.030;21.952;2023-12-14T00:24:37;538.30;;;117.90;;
57846;SDS011;43675;50.030;21.952;2023-12-14T00:27:04;522.00;;;112.60;;
57846;SDS011;43675;50.030;21.952;2023-12-14T00:29:40;565.90;;;120.20;;
57846;SDS011;43675;50.030;21.952;2023-12-14T00:32:15;416.30;;;104.10;;
57846;SDS011;43675;50.030;21.952;2023-12-14T00:34:45;408.90;;;105.70;;
57846;SDS011;43675;50.030;21.952;2023-12-14T00:37:12;429.00;;;107.20;;
57846;SDS011;43675;50.030;21.952;2023-12-14T00:39:39;398.30;;;103.20;;
57846;SDS011;43675;50.030;21.952;2023-12-14T00:42:26;425.20;;;104.10;;
57846;SDS011;43675;50.030;21.952;2023-12-14T00:44:55;356.80;;;98.40;;
57846;SDS011;43675;50.030;21.952;2023-12-14T00:47:22;365.30;;;98.90;;
57846;SDS011;43675;50.030;21.952;2023-12-14T00:49:52;493.00;;;110.80;;
57846;SDS011;43675;50.030;21.952;2023-12-14T00:52:19;528.70;;;114.40;;
57846;SDS011;43675;50.030;21.952;2023-12-14T00:54:46;425.30;;;106.20;;
57846;SDS011;43675;50.030;21.952;2023-12-14T00:57:15;513.30;;;117.60;;
57846;SDS011;43675;50.030;21.952;2023-12-14T00:59:47;547.10;;;120.80;;
57846;SDS011;43675;50.030;21.952;2023-12-14T01:02:17;493.90;;;115.90;;
57846;SDS011;43675;50.030;21.952;2023-12-14T01:04:44;426.60;;;106.30;;
57846;SDS011;43675;50.030;21.952;2023-12-14T01:07:14;513.80;;;116.80;;
57846;SDS011;43675;50.030;21.952;2023-12-14T01:09:41;488.60;;;116.20;;
57846;SDS011;43675;50.030;21.952;2023-12-14T01:12:10;573.10;;;121.10;;
57846;SDS011;43675;50.030;21.952;2023-12-14T01:14:40;501.00;;;115.70;;
57846;SDS011;43675;50.030;21.952;2023-12-14T01:17:07;535.30;;;117.40;;
57846;SDS011;43675;50.030;21.952;2023-12-14T01:19:33;707.90;;;134.60;;
57846;SDS011;43675;50.030;21.952;2023-12-14T01:22:00;627.00;;;124.60;;
57846;SDS011;43675;50.030;21.952;2023-12-14T01:24:30;565.90;;;113.90;;
57846;SDS011;43675;50.030;21.952;2023-12-14T01:26:56;547.30;;;116.60;;
57846;SDS011;43675;50.030;21.952;2023-12-14T01:29:23;538.20;;;114.70;;
57846;SDS011;43675;50.030;21.952;2023-12-14T01:31:50;572.50;;;113.90;;
57846;SDS011;43675;50.030;21.952;2023-12-14T01:34:16;712.70;;;130.00;;
57846;SDS011;43675;50.030;21.952;2023-12-14T01:37:04;547.30;;;110.50;;
57846;SDS011;43675;50.030;21.952;2023-12-14T01:39:33;559.50;;;112.30;;
57846;SDS011;43675;50.030;21.952;2023-12-14T01:42:00;676.40;;;122.00;;
57846;SDS011;43675;50.030;21.952;2023-12-14T01:44:27;574.00;;;118.70;;
57846;SDS011;43675;50.030;21.952;2023-12-14T01:46:54;531.60;;;116.30;;
57846;SDS011;43675;50.030;21.952;2023-12-14T01:49:26;613.70;;;118.50;;
57846;SDS011;43675;50.030;21.952;2023-12-14T01:51:53;648.80;;;126.10;;
57846;SDS011;43675;50.030;21.952;2023-12-14T01:54:25;643.30;;;122.00;;
57846;SDS011;43675;50.030;21.952;2023-12-14T01:56:55;523.90;;;109.60;;
57846;SDS011;43675;50.030;21.952;2023-12-14T01:59:27;568.40;;;120.40;;
57846;SDS011;43675;50.030;21.952;2023-12-14T02:01:56;469.90;;;105.80;;
57846;SDS011;43675;50.030;21.952;2023-12-14T02:04:24;526.00;;;116.30;;
57846;SDS011;43675;50.030;21.952;2023-12-14T02:06:52;596.30;;;120.20;;
57846;SDS011;43675;50.030;21.952;2023-12-14T02:09:18;725.80;;;132.60;;
57846;SDS011;43675;50.030;21.952;2023-12-14T02:11:58;413.70;;;110.40;;
57846;SDS011;43675;50.030;21.952;2023-12-14T02:14:25;321.40;;;103.00;;
57846;SDS011;43675;50.030;21.952;2023-12-14T02:17:03;381.40;;;106.40;;
57846;SDS011;43675;50.030;21.952;2023-12-14T02:19:42;489.30;;;114.20;;
57846;SDS011;43675;50.030;21.952;2023-12-14T02:22:12;379.50;;;104.80;;
57846;SDS011;43675;50.030;21.952;2023-12-14T02:24:42;453.90;;;114.00;;
57846;SDS011;43675;50.030;21.952;2023-12-14T02:27:09;545.40;;;123.50;;
57846;SDS011;43675;50.030;21.952;2023-12-14T02:29:39;490.20;;;117.40;;
57846;SDS011;43675;50.030;21.952;2023-12-14T02:34:58;427.70;;;110.20;;
57846;SDS011;43675;50.030;21.952;2023-12-14T02:37:25;572.10;;;126.70;;
57846;SDS011;43675;50.030;21.952;2023-12-14T02:39:51;530.00;;;114.70;;
57846;SDS011;43675;50.030;21.952;2023-12-14T02:42:18;476.30;;;116.40;;
57846;SDS011;43675;50.030;21.952;2023-12-14T02:44:44;453.50;;;114.10;;
57846;SDS011;43675;50.030;21.952;2023-12-14T02:47:11;604.80;;;128.60;;
57846;SDS011;43675;50.030;21.952;2023-12-14T02:49:38;499.80;;;116.70;;
57846;SDS011;43675;50.030;21.952;2023-12-14T02:52:05;435.00;;;114.40;;
57846;SDS011;43675;50.030;21.952;2023-12-14T02:54:36;530.30;;;121.60;;
57846;SDS011;43675;50.030;21.952;2023-12-14T02:57:05;511.00;;;118.90;;
57846;SDS011;43675;50.030;21.952;2023-12-14T02:59:35;564.70;;;121.80;;
57846;SDS011;43675;50.030;21.952;2023-12-14T03:02:03;485.20;;;116.10;;
57846;SDS011;43675;50.030;21.952;2023-12-14T03:04:32;462.70;;;116.80;;
57846;SDS011;43675;50.030;21.952;2023-12-14T03:06:59;534.00;;;119.40;;
57846;SDS011;43675;50.030;21.952;2023-12-14T03:09:38;538.30;;;121.20;;
57846;SDS011;43675;50.030;21.952;2023-12-14T03:12:09;461.70;;;114.10;;
57846;SDS011;43675;50.030;21.952;2023-12-14T03:14:45;586.80;;;121.50;;
57846;SDS011;43675;50.030;21.952;2023-12-14T03:17:12;499.80;;;114.40;;
57846;SDS011;43675;50.030;21.952;2023-12-14T03:19:39;496.90;;;112.10;;
57846;SDS011;43675;50.030;21.952;2023-12-14T03:22:15;554.30;;;116.10;;
57846;SDS011;43675;50.030;21.952;2023-12-14T03:24:42;524.60;;;118.90;;
57846;SDS011;43675;50.030;21.952;2023-12-14T03:27:08;509.30;;;117.30;;
57846;SDS011;43675;50.030;21.952;2023-12-14T03:29:35;504.30;;;111.10;;
57846;SDS011;43675;50.030;21.952;2023-12-14T03:32:03;452.00;;;111.70;;
57846;SDS011;43675;50.030;21.952;2023-12-14T03:34:30;527.40;;;119.70;;
57846;SDS011;43675;50.030;21.952;2023-12-14T03:36:57;512.20;;;112.80;;
57846;SDS011;43675;50.030;21.952;2023-12-14T03:39:23;470.70;;;110.10;;
57846;SDS011;43675;50.030;21.952;2023-12-14T03:41:50;499.40;;;115.60;;
57846;SDS011;43675;50.030;21.952;2023-12-14T03:44:17;443.10;;;97.60;;
57846;SDS011;43675;50.030;21.952;2023-12-14T03:46:43;486.60;;;101.30;;
57846;SDS011;43675;50.030;21.952;2023-12-14T03:49:10;467.20;;;98.10;;
57846;SDS011;43675;50.030;21.952;2023-12-14T03:51:37;475.40;;;98.70;;
57846;SDS011;43675;50.030;21.952;2023-12-14T03:54:06;508.10;;;100.20;;
57846;SDS011;43675;50.030;21.952;2023-12-14T03:56:36;474.80;;;99.00;;
57846;SDS011;43675;50.030;21.952;2023-12-14T03:59:05;450.30;;;97.00;;
57846;SDS011;43675;50.030;21.952;2023-12-14T04:01:38;492.30;;;99.60;;
57846;SDS011;43675;50.030;21.952;2023-12-14T04:04:06;508.00;;;103.40;;
57846;SDS011;43675;50.030;21.952;2023-12-14T04:06:36;404.80;;;93.80;;
57846;SDS011;43675;50.030;21.952;2023-12-14T04:09:03;437.20;;;95.60;;
57846;SDS011;43675;50.030;21.952;2023-12-14T04:11:29;480.30;;;100.80;;
57846;SDS011;43675;50.030;21.952;2023-12-14T04:13:56;456.80;;;98.60;;
57846;SDS011;43675;50.030;21.952;2023-12-14T04:16:46;423.30;;;100.70;;
57846;SDS011;43675;50.030;21.952;2023-12-14T04:19:16;444.20;;;99.10;;
57846;SDS011;43675;50.030;21.952;2023-12-14T04:21:43;453.80;;;100.50;;
57846;SDS011;43675;50.030;21.952;2023-12-14T04:24:10;399.40;;;96.30;;
57846;SDS011;43675;50.030;21.952;2023-12-14T04:26:37;414.60;;;103.00;;
57846;SDS011;43675;50.030;21.952;2023-12-14T04:29:09;331.80;;;95.50;;
57846;SDS011;43675;50.030;21.952;2023-12-14T04:31:36;402.20;;;102.10;;
57846;SDS011;43675;50.030;21.952;2023-12-14T04:34:03;412.80;;;100.40;;
57846;SDS011;43675;50.030;21.952;2023-12-14T04:36:35;408.50;;;97.80;;
57846;SDS011;43675;50.030;21.952;2023-12-14T04:39:02;399.80;;;105.30;;
57846;SDS011;43675;50.030;21.952;2023-12-14T04:41:39;388.60;;;101.20;;
57846;SDS011;43675;50.030;21.952;2023-12-14T04:46:39;442.10;;;101.10;;
57846;SDS011;43675;50.030;21.952;2023-12-14T04:49:06;404.10;;;98.50;;
57846;SDS011;43675;50.030;21.952;2023-12-14T04:51:36;374.30;;;96.80;;
57846;SDS011;43675;50.030;21.952;2023-12-14T04:54:03;426.30;;;98.90;;
57846;SDS011;43675;50.030;21.952;2023-12-14T04:56:33;500.10;;;104.80;;
57846;SDS011;43675;50.030;21.952;2023-12-14T04:59:04;454.60;;;95.20;;
57846;SDS011;43675;50.030;21.952;2023-12-14T05:01:31;473.10;;;101.90;;
57846;SDS011;43675;50.030;21.952;2023-12-14T05:03:58;501.40;;;101.80;;
57846;SDS011;43675;50.030;21.952;2023-12-14T05:06:27;507.80;;;103.10;;
57846;SDS011;43675;50.030;21.952;2023-12-14T05:08:57;535.80;;;106.00;;
57846;SDS011;43675;50.030;21.952;2023-12-14T05:11:24;508.40;;;104.50;;
57846;SDS011;43675;50.030;21.952;2023-12-14T05:13:52;474.60;;;101.30;;
57846;SDS011;43675;50.030;21.952;2023-12-14T05:16:18;519.40;;;110.20;;
57846;SDS011;43675;50.030;21.952;2023-12-14T05:18:45;606.30;;;117.70;;
57846;SDS011;43675;50.030;21.952;2023-12-14T05:21:21;460.00;;;100.00;;
57846;SDS011;43675;50.030;21.952;2023-12-14T05:23:50;433.30;;;98.50;;
57846;SDS011;43675;50.030;21.952;2023-12-14T05:26:20;432.60;;;99.80;;
57846;SDS011;43675;50.030;21.952;2023-12-14T05:28:48;498.50;;;105.90;;
57846;SDS011;43675;50.030;21.952;2023-12-14T05:31:26;510.10;;;105.10;;
57846;SDS011;43675;50.030;21.952;2023-12-14T05:33:53;484.20;;;100.60;;
57846;SDS011;43675;50.030;21.952;2023-12-14T05:36:20;508.60;;;104.90;;
57846;SDS011;43675;50.030;21.952;2023-12-14T05:38:48;605.40;;;114.90;;
57846;SDS011;43675;50.030;21.952;2023-12-14T05:41:16;436.40;;;101.10;;
57846;SDS011;43675;50.030;21.952;2023-12-14T05:43:43;452.50;;;100.20;;
57846;SDS011;43675;50.030;21.952;2023-12-14T05:46:22;535.10;;;112.20;;
57846;SDS011;43675;50.030;21.952;2023-12-14T05:48:52;443.30;;;99.40;;
57846;SDS011;43675;50.030;21.952;2023-12-14T05:51:29;396.20;;;96.70;;
57846;SDS011;43675;50.030;21.952;2023-12-14T05:54:01;404.60;;;102.30;;
57846;SDS011;43675;50.030;21.952;2023-12-14T05:56:28;414.80;;;104.40;;
57846;SDS011;43675;50.030;21.952;2023-12-14T05:58:58;480.40;;;107.40;;
57846;SDS011;43675;50.030;21.952;2023-12-14T06:01:28;431.30;;;100.10;;
57846;SDS011;43675;50.030;21.952;2023-12-14T06:03:58;432.10;;;102.10;;
57846;SDS011;43675;50.030;21.952;2023-12-14T06:06:56;470.50;;;106.60;;
57846;SDS011;43675;50.030;21.952;2023-12-14T06:09:21;425.50;;;98.00;;
57846;SDS011;43675;50.030;21.952;2023-12-14T06:11:54;433.50;;;100.50;;
57846;SDS011;43675;50.030;21.952;2023-12-14T06:14:21;407.20;;;97.10;;
57846;SDS011;43675;50.030;21.952;2023-12-14T06:16:48;402.00;;;102.10;;
57846;SDS011;43675;50.030;21.952;2023-12-14T06:19:32;408.70;;;102.70;;
57846;SDS011;43675;50.030;21.952;2023-12-14T06:22:09;395.60;;;98.60;;
57846;SDS011;43675;50.030;21.952;2023-12-14T06:24:36;441.10;;;109.30;;
57846;SDS011;43675;50.030;21.952;2023-12-14T06:27:03;393.90;;;101.60;;
57846;SDS011;43675;50.030;21.952;2023-12-14T06:29:39;406.30;;;106.90;;
57846;SDS011;43675;50.030;21.952;2023-12-14T06:32:15;483.40;;;112.20;;
57846;SDS011;43675;50.030;21.952;2023-12-14T06:34:47;283.10;;;99.50;;
57846;SDS011;43675;50.030;21.952;2023-12-14T06:37:22;301.70;;;104.00;;
57846;SDS011;43675;50.030;21.952;2023-12-14T06:39:52;359.10;;;107.10;;
57846;SDS011;43675;50.030;21.952;2023-12-14T06:42:19;294.60;;;101.90;;
57846;SDS011;43675;50.030;21.952;2023-12-14T06:44:46;378.60;;;113.10;;
57846;SDS011;43675;50.030;21.952;2023-12-14T06:47:13;355.00;;;111.50;;
57846;SDS011;43675;50.030;21.952;2023-12-14T06:49:42;317.60;;;119.00;;
57846;SDS011;43675;50.030;21.952;2023-12-14T06:52:10;239.00;;;104.70;;
57846;SDS011;43675;50.030;21.952;2023-12-14T06:54:39;242.40;;;101.80;;
57846;SDS011;43675;50.030;21.952;2023-12-14T06:57:08;231.80;;;99.70;;
57846;SDS011;43675;50.030;21.952;2023-12-14T06:59:35;227.60;;;96.00;;
57846;SDS011;43675;50.030;21.952;2023-12-14T07:02:02;230.10;;;99.30;;
57846;SDS011;43675;50.030;21.952;2023-12-14T07:04:34;242.60;;;102.70;;
57846;SDS011;43675;50.030;21.952;2023-12-14T07:07:01;243.00;;;99.00;;
57846;SDS011;43675;50.030;21.952;2023-12-14T07:09:27;233.10;;;98.00;;
57846;SDS011;43675;50.030;21.952;2023-12-14T07:11:54;245.80;;;99.10;;
57846;SDS011;43675;50.030;21.952;2023-12-14T07:14:21;274.10;;;102.10;;
57846;SDS011;43675;50.030;21.952;2023-12-14T07:16:48;249.10;;;98.10;;
57846;SDS011;43675;50.030;21.952;2023-12-14T07:19:23;236.30;;;93.70;;
57846;SDS011;43675;50.030;21.952;2023-12-14T07:21:50;262.50;;;97.40;;
57846;SDS011;43675;50.030;21.952;2023-12-14T07:24:16;241.40;;;96.60;;
57846;SDS011;43675;50.030;21.952;2023-12-14T07:26:43;239.70;;;93.50;;
57846;SDS011;43675;50.030;21.952;2023-12-14T07:29:10;247.30;;;94.60;;
57846;SDS011;43675;50.030;21.952;2023-12-14T07:31:37;254.80;;;95.10;;
57846;SDS011;43675;50.030;21.952;2023-12-14T07:34:03;300.60;;;101.30;;
57846;SDS011;43675;50.030;21.952;2023-12-14T07:36:30;355.60;;;105.00;;
57846;SDS011;43675;50.030;21.952;2023-12-14T07:38:57;354.20;;;107.50;;
57846;SDS011;43675;50.030;21.952;2023-12-14T07:41:23;326.10;;;98.90;;
57846;SDS011;43675;50.030;21.952;2023-12-14T07:43:53;329.40;;;93.20;;
57846;SDS011;43675;50.030;21.952;2023-12-14T07:46:20;321.60;;;90.40;;
57846;SDS011;43675;50.030;21.952;2023-12-14T07:48:46;320.90;;;92.70;;
57846;SDS011;43675;50.030;21.952;2023-12-14T07:51:13;303.80;;;103.90;;
57846;SDS011;43675;50.030;21.952;2023-12-14T07:53:40;408.20;;;112.40;;
57846;SDS011;43675;50.030;21.952;2023-12-14T07:56:07;330.30;;;116.50;;
57846;SDS011;43675;50.030;21.952;2023-12-14T07:58:34;316.30;;;101.20;;
57846;SDS011;43675;50.030;21.952;2023-12-14T08:01:01;365.10;;;107.60;;
57846;SDS011;43675;50.030;21.952;2023-12-14T08:03:28;284.10;;;97.60;;
57846;SDS011;43675;50.030;21.952;2023-12-14T08:05:55;277.00;;;105.80;;
57846;SDS011;43675;50.030;21.952;2023-12-14T08:08:21;291.30;;;96.90;;
57846;SDS011;43675;50.030;21.952;2023-12-14T08:10:48;269.50;;;100.20;;
57846;SDS011;43675;50.030;21.952;2023-12-14T08:13:15;316.40;;;96.20;;
57846;SDS011;43675;50.030;21.952;2023-12-14T08:15:45;331.30;;;98.30;;
57846;SDS011;43675;50.030;21.952;2023-12-14T08:18:12;358.20;;;98.60;;
57846;SDS011;43675;50.030;21.952;2023-12-14T08:20:39;364.10;;;99.40;;
57846;SDS011;43675;50.030;21.952;2023-12-14T08:23:05;339.50;;;96.70;;
57846;SDS011;43675;50.030;21.952;2023-12-14T08:25:35;317.80;;;91.80;;
57846;SDS011;43675;50.030;21.952;2023-12-14T08:28:02;293.20;;;90.50;;
57846;SDS011;43675;50.030;21.952;2023-12-14T08:30:29;312.10;;;90.90;;
57846;SDS011;43675;50.030;21.952;2023-12-14T08:32:56;380.80;;;96.40;;
57846;SDS011;43675;50.030;21.952;2023-12-14T08:35:22;365.00;;;92.60;;
57846;SDS011;43675;50.030;21.952;2023-12-14T08:37:49;316.60;;;91.90;;
57846;SDS011;43675;50.030;21.952;2023-12-14T08:40:16;297.00;;;90.30;;
57846;SDS011;43675;50.030;21.952;2023-12-14T08:42:43;252.20;;;87.50;;
57846;SDS011;43675;50.030;21.952;2023-12-14T08:45:10;258.20;;;83.70;;
57846;SDS011;43675;50.030;21.952;2023-12-14T08:47:36;274.50;;;88.50;;
57846;SDS011;43675;50.030;21.952;2023-12-14T08:50:06;243.40;;;85.70;;
57846;SDS011;43675;50.030;21.952;2023-12-14T08:52:33;214.20;;;80.70;;
57846;SDS011;43675;50.030;21.952;2023-12-14T08:55:01;217.00;;;83.50;;
57846;SDS011;43675;50.030;21.952;2023-12-14T08:57:31;204.30;;;82.30;;
57846;SDS011;43675;50.030;21.952;2023-12-14T08:59:58;213.00;;;80.70;;
57846;SDS011;43675;50.030;21.952;2023-12-14T09:02:28;234.60;;;83.80;;
57846;SDS011;43675;50.030;21.952;2023-12-14T09:05:02;229.90;;;80.80;;
57846;SDS011;43675;50.030;21.952;2023-12-14T09:07:29;247.00;;;87.20;;
57846;SDS011;43675;50.030;21.952;2023-12-14T09:09:57;191.60;;;76.30;;
57846;SDS011;43675;50.030;21.952;2023-12-14T09:12:24;234.80;;;84.40;;
57846;SDS011;43675;50.030;21.952;2023-12-14T09:14:51;233.50;;;86.60;;
57846;SDS011;43675;50.030;21.952;2023-12-14T09:17:18;243.50;;;82.20;;
57846;SDS011;43675;50.030;21.952;2023-12-14T09:19:44;254.80;;;86.10;;
57846;SDS011;43675;50.030;21.952;2023-12-14T09:22:14;217.10;;;83.70;;
57846;SDS011;43675;50.030;21.952;2023-12-14T09:24:42;217.20;;;83.90;;
57846;SDS011;43675;50.030;21.952;2023-12-14T09:27:09;203.40;;;81.00;;
57846;SDS011;43675;50.030;21.952;2023-12-14T09:29:36;180.20;;;78.50;;
57846;SDS011;43675;50.030;21.952;2023-12-14T09:32:03;153.10;;;72.20;;
57846;SDS011;43675;50.030;21.952;2023-12-14T09:34:30;178.60;;;77.20;;
57846;SDS011;43675;50.030;21.952;2023-12-14T09:36:56;206.90;;;81.50;;
57846;SDS011;43675;50.030;21.952;2023-12-14T09:39:23;199.20;;;82.00;;
57846;SDS011;43675;50.030;21.952;2023-12-14T09:41:50;200.70;;;82.40;;
57846;SDS011;43675;50.030;21.952;2023-12-14T09:44:17;197.50;;;79.50;;
57846;SDS011;43675;50.030;21.952;2023-12-14T09:46:44;196.10;;;83.90;;
57846;SDS011;43675;50.030;21.952;2023-12-14T09:49:12;164.30;;;75.40;;
57846;SDS011;43675;50.030;21.952;2023-12-14T09:51:42;158.90;;;74.50;;
57846;SDS011;43675;50.030;21.952;2023-12-14T09:54:12;145.30;;;73.50;;
57846;SDS011;43675;50.030;21.952;2023-12-14T09:56:45;138.70;;;70.70;;
57846;SDS011;43675;50.030;21.952;2023-12-14T09:59:13;135.10;;;69.00;;
57846;SDS011;43675;50.030;21.952;2023-12-14T10:01:40;130.10;;;69.80;;
57846;SDS011;43675;50.030;21.952;2023-12-14T10:04:11;124.20;;;67.70;;
57846;SDS011;43675;50.030;21.952;2023-12-14T10:06:39;116.90;;;67.00;;
57846;SDS011;43675;50.030;21.952;2023-12-14T10:09:07;115.30;;;65.40;;
57846;SDS011;43675;50.030;21.952;2023-12-14T10:11:37;111.90;;;65.10;;
57846;SDS011;43675;50.030;21.952;2023-12-14T10:14:17;106.30;;;64.10;;
57846;SDS011;43675;50.030;21.952;2023-12-14T10:16:44;104.90;;;66.20;;
57846;SDS011;43675;50.030;21.952;2023-12-14T10:19:11;110.60;;;66.00;;
57846;SDS011;43675;50.030;21.952;2023-12-14T10:21:38;105.10;;;62.40;;
57846;SDS011;43675;50.030;21.952;2023-12-14T10:24:05;109.40;;;64.50;;
57846;SDS011;43675;50.030;21.952;2023-12-14T10:26:32;100.00;;;62.10;;
57846;SDS011;43675;50.030;21.952;2023-12-14T10:28:58;92.70;;;60.30;;
57846;SDS011;43675;50.030;21.952;2023-12-14T10:31:27;82.80;;;56.20;;
57846;SDS011;43675;50.030;21.952;2023-12-14T10:33:55;103.30;;;70.00;;
57846;SDS011;43675;50.030;21.952;2023-12-14T10:36:22;76.20;;;55.80;;
57846;SDS011;43675;50.030;21.952;2023-12-14T10:38:52;89.50;;;59.90;;
57846;SDS011;43675;50.030;21.952;2023-12-14T10:41:23;78.30;;;54.00;;
57846;SDS011;43675;50.030;21.952;2023-12-14T10:43:59;83.50;;;56.70;;
57846;SDS011;43675;50.030;21.952;2023-12-14T10:46:28;80.50;;;59.10;;
57846;SDS011;43675;50.030;21.952;2023-12-14T10:48:54;80.70;;;56.30;;
57846;SDS011;43675;50.030;21.952;2023-12-14T10:51:23;73.90;;;53.20;;
57846;SDS011;43675;50.030;21.952;2023-12-14T10:53:54;78.90;;;55.40;;
57846;SDS011;43675;50.030;21.952;2023-12-14T10:56:28;75.60;;;53.10;;
57846;SDS011;43675;50.030;21.952;2023-12-14T10:58:56;76.10;;;55.70;;
57846;SDS011;43675;50.030;21.952;2023-12-14T11:01:24;71.50;;;53.30;;
57846;SDS011;43675;50.030;21.952;2023-12-14T11:03:54;66.40;;;51.90;;
57846;SDS011;43675;50.030;21.952;2023-12-14T11:08:59;62.40;;;49.60;;
57846;SDS011;43675;50.030;21.952;2023-12-14T11:11:28;62.00;;;49.60;;
57846;SDS011;43675;50.030;21.952;2023-12-14T11:13:56;56.70;;;45.90;;
57846;SDS011;43675;50.030;21.952;2023-12-14T11:16:23;55.10;;;43.70;;
57846;SDS011;43675;50.030;21.952;2023-12-14T11:24:14;48.60;;;40.30;;
57846;SDS011;43675;50.030;21.952;2023-12-14T11:26:41;52.50;;;41.70;;
57846;SDS011;43675;50.030;21.952;2023-12-14T11:29:10;54.20;;;43.40;;
57846;SDS011;43675;50.030;21.952;2023-12-14T11:31:40;50.80;;;42.10;;
57846;SDS011;43675;50.030;21.952;2023-12-14T11:34:06;48.10;;;39.10;;
57846;SDS011;43675;50.030;21.952;2023-12-14T11:36:33;46.50;;;39.10;;
57846;SDS011;43675;50.030;21.952;2023-12-14T11:39:00;47.20;;;38.60;;
57846;SDS011;43675;50.030;21.952;2023-12-14T11:41:27;48.40;;;39.40;;
57846;SDS011;43675;50.030;21.952;2023-12-14T11:43:56;50.70;;;40.00;;
57846;SDS011;43675;50.030;21.952;2023-12-14T11:46:29;53.10;;;41.80;;
57846;SDS011;43675;50.030;21.952;2023-12-14T11:48:59;55.70;;;43.50;;
57846;SDS011;43675;50.030;21.952;2023-12-14T11:51:47;92.10;;;54.20;;
57846;SDS011;43675;50.030;21.952;2023-12-14T11:54:16;143.60;;;62.30;;
57846;SDS011;43675;50.030;21.952;2023-12-14T11:56:46;227.30;;;69.00;;
57846;SDS011;43675;50.030;21.952;2023-12-14T11:59:20;318.70;;;76.00;;
57846;SDS011;43675;50.030;21.952;2023-12-14T12:01:55;258.50;;;72.70;;
57846;SDS011;43675;50.030;21.952;2023-12-14T12:04:27;286.40;;;82.40;;
57846;SDS011;43675;50.030;21.952;2023-12-14T12:07:06;296.50;;;83.60;;
57846;SDS011;43675;50.030;21.952;2023-12-14T12:09:42;212.50;;;80.90;;
57846;SDS011;43675;50.030;21.952;2023-12-14T12:12:13;132.50;;;69.50;;
57846;SDS011;43675;50.030;21.952;2023-12-14T12:14:40;115.50;;;64.30;;
57846;SDS011;43675;50.030;21.952;2023-12-14T12:17:10;111.60;;;63.00;;
57846;SDS011;43675;50.030;21.952;2023-12-14T12:19:37;105.90;;;61.70;;
57846;SDS011;43675;50.030;21.952;2023-12-14T12:22:07;108.30;;;65.20;;
57846;SDS011;43675;50.030;21.952;2023-12-14T12:24:34;111.50;;;65.40;;
57846;SDS011;43675;50.030;21.952;2023-12-14T12:27:01;113.00;;;67.70;;
57846;SDS011;43675;50.030;21.952;2023-12-14T12:29:28;117.10;;;68.60;;
57846;SDS011;43675;50.030;21.952;2023-12-14T12:31:55;133.90;;;72.10;;
57846;SDS011;43675;50.030;21.952;2023-12-14T12:34:21;132.50;;;69.40;;
57846;SDS011;43675;50.030;21.952;2023-12-14T12:36:48;149.40;;;70.40;;
57846;SDS011;43675;50.030;21.952;2023-12-14T12:39:15;154.80;;;73.70;;
57846;SDS011;43675;50.030;21.952;2023-12-14T12:41:42;164.40;;;77.70;;
57846;SDS011;43675;50.030;21.952;2023-12-14T12:44:12;204.90;;;85.90;;
57846;SDS011;43675;50.030;21.952;2023-12-14T12:46:39;186.90;;;87.80;;
57846;SDS011;43675;50.030;21.952;2023-12-14T12:49:06;205.50;;;94.00;;
57846;SDS011;43675;50.030;21.952;2023-12-14T12:54:22;178.80;;;81.00;;
57846;SDS011;43675;50.030;21.952;2023-12-14T12:56:49;192.60;;;83.40;;
57846;SDS011;43675;50.030;21.952;2023-12-14T12:59:15;201.50;;;84.70;;
57846;SDS011;43675;50.030;21.952;2023-12-14T13:01:45;175.10;;;79.80;;
57846;SDS011;43675;50.030;21.952;2023-12-14T13:04:58;176.40;;;80.60;;
57846;SDS011;43675;50.030;21.952;2023-12-14T13:07:05;177.40;;;78.50;;
57846;SDS011;43675;50.030;21.952;2023-12-14T13:09:31;158.80;;;76.60;;
57846;SDS011;43675;50.030;21.952;2023-12-14T13:11:58;158.10;;;81.50;;
57846;SDS011;43675;50.030;21.952;2023-12-14T13:14:25;165.30;;;81.00;;
57846;SDS011;43675;50.030;21.952;2023-12-14T13:16:52;165.90;;;82.00;;
57846;SDS011;43675;50.030;21.952;2023-12-14T13:19:19;174.40;;;87.90;;
57846;SDS011;43675;50.030;21.952;2023-12-14T13:21:45;215.20;;;92.70;;
57846;SDS011;43675;50.030;21.952;2023-12-14T13:24:15;180.90;;;90.90;;
57846;SDS011;43675;50.030;21.952;2023-12-14T13:26:42;201.00;;;93.20;;
57846;SDS011;43675;50.030;21.952;2023-12-14T13:29:09;204.10;;;91.60;;
57846;SDS011;43675;50.030;21.952;2023-12-14T13:31:36;204.60;;;91.60;;
57846;SDS011;43675;50.030;21.952;2023-12-14T13:34:02;210.20;;;92.50;;
57846;SDS011;43675;50.030;21.952;2023-12-14T13:36:29;219.50;;;92.30;;
57846;SDS011;43675;50.030;21.952;2023-12-14T13:38:58;225.00;;;91.40;;
57846;SDS011;43675;50.030;21.952;2023-12-14T13:41:25;239.00;;;91.50;;
57846;SDS011;43675;50.030;21.952;2023-12-14T13:43:52;216.20;;;91.70;;
57846;SDS011;43675;50.030;21.952;2023-12-14T13:46:18;207.00;;;89.60;;
57846;SDS011;43675;50.030;21.952;2023-12-14T13:48:45;210.10;;;93.30;;
57846;SDS011;43675;50.030;21.952;2023-12-14T13:51:12;216.50;;;98.70;;
57846;SDS011;43675;50.030;21.952;2023-12-14T13:53:39;221.90;;;98.30;;
57846;SDS011;43675;50.030;21.952;2023-12-14T13:56:05;222.50;;;99.50;;
57846;SDS011;43675;50.030;21.952;2023-12-14T13:58:33;216.90;;;96.30;;
57846;SDS011;43675;50.030;21.952;2023-12-14T14:00:59;192.00;;;86.30;;
57846;SDS011;43675;50.030;21.952;2023-12-14T14:03:29;214.80;;;87.20;;
57846;SDS011;43675;50.030;21.952;2023-12-14T14:05:56;194.50;;;87.90;;
57846;SDS011;43675;50.030;21.952;2023-12-14T14:08:23;212.50;;;89.60;;
57846;SDS011;43675;50.030;21.952;2023-12-14T14:10:50;199.00;;;87.40;;
57846;SDS011;43675;50.030;21.952;2023-12-14T14:13:17;203.70;;;89.40;;
57846;SDS011;43675;50.030;21.952;2023-12-14T14:15:46;202.10;;;89.00;;
57846;SDS011;43675;50.030;21.952;2023-12-14T14:18:13;212.70;;;91.40;;